sensor_id;sensor_type;location;lat;lon;timestamp;pressure;altitude;pressure_sealevel;temperature;humidity
14253;BME280;7210;51.502;10.722;2023-04-30T00:00:49;100090.09;;;4.95;100.00
14253;BME280;7210;51.502;10.722;2023-04-30T00:03:20;100088.81;;;4.91;100.00
14253;BME280;7210;51.502;10.722;2023-04-30T00:05:49;100086.09;;;4.84;100.00
14253;BME280;7210;51.502;10.722;2023-04-30T00:08:17;100076.84;;;4.74;100.00
14253;BME280;7210;51.502;10.722;2023-04-30T00:10:44;100074.31;;;4.66;100.00
14253;BME280;7210;51.502;10.722;2023-04-30T00:13:11;100076.13;;;4.65;100.00
14253;BME280;7210;51.502;10.722;2023-04-30T00:15:40;100069.59;;;4.61;100.00
14253;BME280;7210;51.502;10.722;2023-04-30T00:18:07;100070.75;;;4.59;100.00
14253;BME280;7210;51.502;10.722;2023-04-30T00:20:34;100069.97;;;4.58;100.00
14253;BME280;7210;51.502;10.722;2023-04-30T00:23:02;100068.44;;;4.64;100.00
14253;BME280;7210;51.502;10.722;2023-04-30T00:25:29;100077.22;;;4.71;100.00
14253;BME280;7210;51.502;10.722;2023-04-30T00:27:56;100095.66;;;4.92;100.00
14253;BME280;7210;51.502;10.722;2023-04-30T00:30:23;100092.00;;;5.01;100.00
14253;BME280;7210;51.502;10.722;2023-04-30T00:32:52;100108.72;;;5.14;100.00
14253;BME280;7210;51.502;10.722;2023-04-30T00:35:19;100117.97;;;5.25;100.00
14253;BME280;7210;51.502;10.722;2023-04-30T00:37:46;100114.34;;;5.26;100.00
14253;BME280;7210;51.502;10.722;2023-04-30T00:40:13;100112.63;;;5.33;100.00
14253;BME280;7210;51.502;10.722;2023-04-30T00:42:41;100124.75;;;5.34;100.00
14253;BME280;7210;51.502;10.722;2023-04-30T00:45:09;100112.00;;;5.31;100.00
14253;BME280;7210;51.502;10.722;2023-04-30T00:47:36;100114.97;;;5.28;100.00
14253;BME280;7210;51.502;10.722;2023-04-30T00:50:06;100121.38;;;5.25;100.00
14253;BME280;7210;51.502;10.722;2023-04-30T00:52:34;100116.03;;;5.19;100.00
14253;BME280;7210;51.502;10.722;2023-04-30T00:55:01;100127.88;;;5.15;100.00
14253;BME280;7210;51.502;10.722;2023-04-30T00:57:29;100112.41;;;5.05;100.00
14253;BME280;7210;51.502;10.722;2023-04-30T00:59:56;100128.22;;;4.97;100.00
14253;BME280;7210;51.502;10.722;2023-04-30T01:02:24;100121.50;;;4.80;100.00
14253;BME280;7210;51.502;10.722;2023-04-30T01:04:53;100115.66;;;4.70;100.00
14253;BME280;7210;51.502;10.722;2023-04-30T01:07:24;100108.25;;;4.59;100.00
14253;BME280;7210;51.502;10.722;2023-04-30T01:09:53;100104.22;;;4.49;100.00
14253;BME280;7210;51.502;10.722;2023-04-30T01:12:30;100106.28;;;4.39;100.00
14253;BME280;7210;51.502;10.722;2023-04-30T01:15:13;100099.66;;;4.28;100.00
14253;BME280;7210;51.502;10.722;2023-04-30T01:17:51;100099.97;;;4.25;100.00
14253;BME280;7210;51.502;10.722;2023-04-30T01:20:22;100102.44;;;4.27;100.00
14253;BME280;7210;51.502;10.722;2023-04-30T01:23:01;100102.78;;;4.24;100.00
14253;BME280;7210;51.502;10.722;2023-04-30T01:25:52;100120.44;;;4.22;100.00
14253;BME280;7210;51.502;10.722;2023-04-30T01:28:28;100118.34;;;4.17;100.00
14253;BME280;7210;51.502;10.722;2023-04-30T01:30:58;100120.31;;;4.15;100.00
14253;BME280;7210;51.502;10.722;2023-04-30T01:33:26;100125.56;;;4.15;100.00
14253;BME280;7210;51.502;10.722;2023-04-30T01:36:29;100119.38;;;4.08;100.00
14253;BME280;7210;51.502;10.722;2023-04-30T01:39:19;100124.81;;;3.99;100.00
14253;BME280;7210;51.502;10.722;2023-04-30T01:41:56;100122.91;;;3.93;100.00
14253;BME280;7210;51.502;10.722;2023-04-30T01:44:55;100120.81;;;3.88;100.00
14253;BME280;7210;51.502;10.722;2023-04-30T01:47:34;100123.13;;;3.83;100.00
14253;BME280;7210;51.502;10.722;2023-04-30T01:50:14;100122.00;;;3.78;100.00
14253;BME280;7210;51.502;10.722;2023-04-30T01:52:49;100124.31;;;3.73;100.00
14253;BME280;7210;51.502;10.722;2023-04-30T01:55:24;100126.63;;;3.68;100.00
14253;BME280;7210;51.502;10.722;2023-04-30T01:57:57;100132.66;;;3.68;100.00
14253;BME280;7210;51.502;10.722;2023-04-30T02:00:28;100131.19;;;3.66;100.00
14253;BME280;7210;51.502;10.722;2023-04-30T02:02:57;100130.91;;;3.61;100.00
14253;BME280;7210;51.502;10.722;2023-04-30T02:05:24;100131.22;;;3.58;100.00
14253;BME280;7210;51.502;10.722;2023-04-30T02:07:52;100123.09;;;3.53;100.00
14253;BME280;7210;51.502;10.722;2023-04-30T02:10:21;100127.34;;;3.46;100.00
14253;BME280;7210;51.502;10.722;2023-04-30T02:12:48;100126.06;;;3.42;100.00
14253;BME280;7210;51.502;10.722;2023-04-30T02:15:16;100125.25;;;3.42;100.00
14253;BME280;7210;51.502;10.722;2023-04-30T02:17:44;100138.94;;;3.44;100.00
14253;BME280;7210;51.502;10.722;2023-04-30T02:20:12;100134.03;;;3.41;100.00
14253;BME280;7210;51.502;10.722;2023-04-30T02:22:39;100137.16;;;3.36;100.00
14253;BME280;7210;51.502;10.722;2023-04-30T02:25:07;100140.78;;;3.27;100.00
14253;BME280;7210;51.502;10.722;2023-04-30T02:27:36;100137.53;;;3.17;100.00
14253;BME280;7210;51.502;10.722;2023-04-30T02:30:04;100144.25;;;3.12;100.00
14253;BME280;7210;51.502;10.722;2023-04-30T02:32:32;100141.47;;;3.05;100.00
14253;BME280;7210;51.502;10.722;2023-04-30T02:35:00;100138.38;;;3.02;100.00
14253;BME280;7210;51.502;10.722;2023-04-30T02:37:27;100140.50;;;2.98;100.00
14253;BME280;7210;51.502;10.722;2023-04-30T02:39:55;100148.00;;;3.01;100.00
14253;BME280;7210;51.502;10.722;2023-04-30T02:42:24;100141.97;;;3.01;100.00
14253;BME280;7210;51.502;10.722;2023-04-30T02:44:51;100145.06;;;2.96;100.00
14253;BME280;7210;51.502;10.722;2023-04-30T02:47:19;100149.00;;;2.92;100.00
14253;BME280;7210;51.502;10.722;2023-04-30T02:49:46;100155.84;;;2.93;100.00
14253;BME280;7210;51.502;10.722;2023-04-30T02:52:14;100153.09;;;2.95;100.00
14253;BME280;7210;51.502;10.722;2023-04-30T02:54:42;100152.59;;;2.91;100.00
14253;BME280;7210;51.502;10.722;2023-04-30T02:57:09;100153.25;;;2.93;100.00
14253;BME280;7210;51.502;10.722;2023-04-30T02:59:36;100152.25;;;2.94;100.00
14253;BME280;7210;51.502;10.722;2023-04-30T03:02:03;100165.66;;;2.99;100.00
14253;BME280;7210;51.502;10.722;2023-04-30T03:04:31;100162.72;;;2.94;100.00
14253;BME280;7210;51.502;10.722;2023-04-30T03:06:58;100151.28;;;2.87;100.00
14253;BME280;7210;51.502;10.722;2023-04-30T03:09:28;100153.06;;;2.79;100.00
14253;BME280;7210;51.502;10.722;2023-04-30T03:11:55;100153.25;;;2.69;100.00
14253;BME280;7210;51.502;10.722;2023-04-30T03:14:23;100148.03;;;2.61;100.00
14253;BME280;7210;51.502;10.722;2023-04-30T03:16:50;100147.69;;;2.56;100.00
14253;BME280;7210;51.502;10.722;2023-04-30T03:19:17;100154.22;;;2.60;100.00
14253;BME280;7210;51.502;10.722;2023-04-30T03:21:50;100153.41;;;2.60;100.00
14253;BME280;7210;51.502;10.722;2023-04-30T03:24:17;100150.94;;;2.50;100.00
14253;BME280;7210;51.502;10.722;2023-04-30T03:26:46;100145.72;;;2.42;100.00
14253;BME280;7210;51.502;10.722;2023-04-30T03:29:13;100143.75;;;2.36;100.00
14253;BME280;7210;51.502;10.722;2023-04-30T03:31:47;100148.78;;;2.30;100.00
14253;BME280;7210;51.502;10.722;2023-04-30T03:34:14;100147.00;;;2.22;100.00
14253;BME280;7210;51.502;10.722;2023-04-30T03:36:41;100145.81;;;2.17;100.00
14253;BME280;7210;51.502;10.722;2023-04-30T03:39:11;100151.38;;;2.14;100.00
14253;BME280;7210;51.502;10.722;2023-04-30T03:41:38;100154.31;;;2.11;100.00
14253;BME280;7210;51.502;10.722;2023-04-30T03:44:06;100154.09;;;2.04;100.00
14253;BME280;7210;51.502;10.722;2023-04-30T03:46:40;100160.00;;;2.06;100.00
14253;BME280;7210;51.502;10.722;2023-04-30T03:49:08;100166.50;;;2.02;100.00
14253;BME280;7210;51.502;10.722;2023-04-30T03:51:36;100168.59;;;1.99;100.00
14253;BME280;7210;51.502;10.722;2023-04-30T03:54:07;100164.34;;;1.98;100.00
14253;BME280;7210;51.502;10.722;2023-04-30T03:56:35;100169.72;;;1.96;100.00
14253;BME280;7210;51.502;10.722;2023-04-30T03:59:05;100168.75;;;1.97;100.00
14253;BME280;7210;51.502;10.722;2023-04-30T04:01:33;100187.06;;;2.13;100.00
14253;BME280;7210;51.502;10.722;2023-04-30T04:04:00;100187.06;;;2.13;100.00
14253;BME280;7210;51.502;10.722;2023-04-30T04:06:29;100184.13;;;2.08;100.00
14253;BME280;7210;51.502;10.722;2023-04-30T04:08:56;100179.03;;;1.99;100.00
14253;BME280;7210;51.502;10.722;2023-04-30T04:11:23;100186.38;;;2.03;100.00
14253;BME280;7210;51.502;10.722;2023-04-30T04:13:51;100195.16;;;2.02;100.00
14253;BME280;7210;51.502;10.722;2023-04-30T04:16:19;100191.91;;;2.00;100.00
14253;BME280;7210;51.502;10.722;2023-04-30T04:18:47;100200.38;;;2.02;100.00
14253;BME280;7210;51.502;10.722;2023-04-30T04:21:15;100210.47;;;2.05;100.00
14253;BME280;7210;51.502;10.722;2023-04-30T04:23:42;100218.66;;;2.10;100.00
14253;BME280;7210;51.502;10.722;2023-04-30T04:26:11;100212.81;;;2.16;100.00
14253;BME280;7210;51.502;10.722;2023-04-30T04:28:38;100220.16;;;2.21;100.00
14253;BME280;7210;51.502;10.722;2023-04-30T04:31:06;100225.06;;;2.24;100.00
14253;BME280;7210;51.502;10.722;2023-04-30T04:33:34;100235.34;;;2.25;100.00
14253;BME280;7210;51.502;10.722;2023-04-30T04:36:02;100227.19;;;2.28;100.00
14253;BME280;7210;51.502;10.722;2023-04-30T04:38:35;100235.72;;;2.38;100.00
14253;BME280;7210;51.502;10.722;2023-04-30T04:41:03;100239.16;;;2.47;100.00
14253;BME280;7210;51.502;10.722;2023-04-30T04:43:30;100242.25;;;2.50;100.00
14253;BME280;7210;51.502;10.722;2023-04-30T04:45:57;100247.47;;;2.50;100.00
14253;BME280;7210;51.502;10.722;2023-04-30T04:48:24;100242.59;;;2.47;100.00
14253;BME280;7210;51.502;10.722;2023-04-30T04:50:53;100249.44;;;2.48;100.00
14253;BME280;7210;51.502;10.722;2023-04-30T04:53:20;100248.59;;;2.48;100.00
14253;BME280;7210;51.502;10.722;2023-04-30T04:55:47;100245.06;;;2.49;100.00
14253;BME280;7210;51.502;10.722;2023-04-30T04:58:14;100253.69;;;2.57;100.00
14253;BME280;7210;51.502;10.722;2023-04-30T05:00:42;100260.56;;;2.74;100.00
14253;BME280;7210;51.502;10.722;2023-04-30T05:03:10;100269.41;;;2.89;100.00
14253;BME280;7210;51.502;10.722;2023-04-30T05:05:37;100276.63;;;3.03;100.00
14253;BME280;7210;51.502;10.722;2023-04-30T05:08:05;100277.28;;;3.13;100.00
14253;BME280;7210;51.502;10.722;2023-04-30T05:10:33;100282.84;;;3.26;100.00
14253;BME280;7210;51.502;10.722;2023-04-30T05:13:00;100287.75;;;3.37;100.00
14253;BME280;7210;51.502;10.722;2023-04-30T05:15:27;100293.28;;;3.50;100.00
14253;BME280;7210;51.502;10.722;2023-04-30T05:17:54;100291.31;;;3.60;100.00
14253;BME280;7210;51.502;10.722;2023-04-30T05:20:21;100292.47;;;3.73;100.00
14253;BME280;7210;51.502;10.722;2023-04-30T05:22:49;100291.28;;;3.92;100.00
14253;BME280;7210;51.502;10.722;2023-04-30T05:25:18;100293.19;;;4.06;100.00
14253;BME280;7210;51.502;10.722;2023-04-30T05:27:45;100297.91;;;4.18;100.00
14253;BME280;7210;51.502;10.722;2023-04-30T05:30:12;100294.56;;;4.32;100.00
14253;BME280;7210;51.502;10.722;2023-04-30T05:32:40;100296.97;;;4.50;100.00
14253;BME280;7210;51.502;10.722;2023-04-30T05:35:08;100301.78;;;4.69;100.00
14253;BME280;7210;51.502;10.722;2023-04-30T05:37:35;100313.72;;;5.02;100.00
14253;BME280;7210;51.502;10.722;2023-04-30T05:40:04;100305.31;;;5.29;100.00
14253;BME280;7210;51.502;10.722;2023-04-30T05:42:32;100309.72;;;5.51;100.00
14253;BME280;7210;51.502;10.722;2023-04-30T05:45:01;100300.16;;;5.58;100.00
14253;BME280;7210;51.502;10.722;2023-04-30T05:47:28;100301.00;;;5.58;100.00
14253;BME280;7210;51.502;10.722;2023-04-30T05:49:56;100290.97;;;5.62;100.00
14253;BME280;7210;51.502;10.722;2023-04-30T05:52:23;100282.09;;;5.63;100.00
14253;BME280;7210;51.502;10.722;2023-04-30T05:54:53;100277.50;;;5.65;100.00
14253;BME280;7210;51.502;10.722;2023-04-30T05:57:20;100273.88;;;5.66;100.00
14253;BME280;7210;51.502;10.722;2023-04-30T05:59:49;100264.66;;;5.70;100.00
14253;BME280;7210;51.502;10.722;2023-04-30T06:02:16;100276.25;;;5.75;100.00
14253;BME280;7210;51.502;10.722;2023-04-30T06:04:43;100278.72;;;6.06;100.00
14253;BME280;7210;51.502;10.722;2023-04-30T06:07:11;100275.00;;;6.15;100.00
14253;BME280;7210;51.502;10.722;2023-04-30T06:09:38;100281.06;;;6.30;100.00
14253;BME280;7210;51.502;10.722;2023-04-30T06:12:06;100272.84;;;6.33;100.00
14253;BME280;7210;51.502;10.722;2023-04-30T06:14:34;100259.78;;;6.39;100.00
14253;BME280;7210;51.502;10.722;2023-04-30T06:17:03;100253.00;;;6.45;100.00
14253;BME280;7210;51.502;10.722;2023-04-30T06:19:30;100257.56;;;6.57;100.00
14253;BME280;7210;51.502;10.722;2023-04-30T06:21:57;100247.97;;;6.64;100.00
14253;BME280;7210;51.502;10.722;2023-04-30T06:24:24;100240.97;;;6.71;100.00
14253;BME280;7210;51.502;10.722;2023-04-30T06:26:52;100243.53;;;6.86;100.00
14253;BME280;7210;51.502;10.722;2023-04-30T06:29:19;100251.75;;;6.97;100.00
14253;BME280;7210;51.502;10.722;2023-04-30T06:31:49;100249.81;;;7.27;100.00
14253;BME280;7210;51.502;10.722;2023-04-30T06:34:18;100258.25;;;7.70;100.00
14253;BME280;7210;51.502;10.722;2023-04-30T06:36:45;100243.75;;;7.81;100.00
14253;BME280;7210;51.502;10.722;2023-04-30T06:39:14;100226.72;;;7.77;100.00
14253;BME280;7210;51.502;10.722;2023-04-30T06:41:41;100217.53;;;8.00;100.00
14253;BME280;7210;51.502;10.722;2023-04-30T06:44:09;100209.38;;;8.23;100.00
14253;BME280;7210;51.502;10.722;2023-04-30T06:46:37;100211.63;;;8.32;100.00
14253;BME280;7210;51.502;10.722;2023-04-30T06:49:05;100206.38;;;8.32;100.00
14253;BME280;7210;51.502;10.722;2023-04-30T06:51:33;100190.94;;;8.23;100.00
14253;BME280;7210;51.502;10.722;2023-04-30T06:54:00;100190.53;;;8.19;100.00
14253;BME280;7210;51.502;10.722;2023-04-30T06:56:28;100186.00;;;8.13;100.00
14253;BME280;7210;51.502;10.722;2023-04-30T06:58:55;100188.09;;;8.24;100.00
14253;BME280;7210;51.502;10.722;2023-04-30T07:01:22;100183.66;;;8.25;100.00
14253;BME280;7210;51.502;10.722;2023-04-30T07:03:50;100180.00;;;8.19;99.71
14253;BME280;7210;51.502;10.722;2023-04-30T07:06:19;100188.06;;;8.18;99.30
14253;BME280;7210;51.502;10.722;2023-04-30T07:08:47;100183.59;;;8.18;98.91
14253;BME280;7210;51.502;10.722;2023-04-30T07:11:15;100192.16;;;8.20;98.65
14253;BME280;7210;51.502;10.722;2023-04-30T07:13:42;100187.25;;;8.17;97.62
14253;BME280;7210;51.502;10.722;2023-04-30T07:16:09;100192.16;;;8.20;97.55
14253;BME280;7210;51.502;10.722;2023-04-30T07:18:36;100195.78;;;8.19;96.98
14253;BME280;7210;51.502;10.722;2023-04-30T07:21:04;100189.25;;;8.15;96.01
14253;BME280;7210;51.502;10.722;2023-04-30T07:23:33;100182.38;;;8.14;95.78
14253;BME280;7210;51.502;10.722;2023-04-30T07:26:01;100178.72;;;8.15;94.91
14253;BME280;7210;51.502;10.722;2023-04-30T07:28:28;100193.16;;;8.19;94.79
14253;BME280;7210;51.502;10.722;2023-04-30T07:30:55;100204.13;;;8.23;94.36
14253;BME280;7210;51.502;10.722;2023-04-30T07:33:23;100217.72;;;8.33;94.15
14253;BME280;7210;51.502;10.722;2023-04-30T07:36:03;100215.75;;;8.41;93.68
14253;BME280;7210;51.502;10.722;2023-04-30T07:38:30;100221.44;;;8.51;92.97
14253;BME280;7210;51.502;10.722;2023-04-30T07:40:57;100225.53;;;8.60;92.46
14253;BME280;7210;51.502;10.722;2023-04-30T07:43:25;100226.19;;;8.69;91.78
14253;BME280;7210;51.502;10.722;2023-04-30T07:45:52;100219.09;;;8.76;90.92
14253;BME280;7210;51.502;10.722;2023-04-30T07:48:20;100216.25;;;8.77;90.06
14253;BME280;7210;51.502;10.722;2023-04-30T07:50:47;100213.44;;;8.92;89.12
14253;BME280;7210;51.502;10.722;2023-04-30T07:53:14;100213.22;;;8.93;88.45
14253;BME280;7210;51.502;10.722;2023-04-30T07:55:42;100189.91;;;8.90;87.51
14253;BME280;7210;51.502;10.722;2023-04-30T07:58:11;100198.84;;;8.96;87.21
14253;BME280;7210;51.502;10.722;2023-04-30T08:00:39;100230.91;;;9.12;87.03
14253;BME280;7210;51.502;10.722;2023-04-30T08:03:07;100233.97;;;9.22;86.76
14253;BME280;7210;51.502;10.722;2023-04-30T08:05:34;100229.09;;;9.26;86.25
14253;BME280;7210;51.502;10.722;2023-04-30T08:08:01;100224.81;;;9.31;85.41
14253;BME280;7210;51.502;10.722;2023-04-30T08:10:28;100238.22;;;9.36;85.15
14253;BME280;7210;51.502;10.722;2023-04-30T08:12:55;100235.38;;;9.44;84.88
14253;BME280;7210;51.502;10.722;2023-04-30T08:15:22;100256.91;;;9.54;84.59
14253;BME280;7210;51.502;10.722;2023-04-30T08:17:51;100263.41;;;9.58;84.41
14253;BME280;7210;51.502;10.722;2023-04-30T08:20:18;100256.91;;;9.67;83.83
14253;BME280;7210;51.502;10.722;2023-04-30T08:22:53;100275.56;;;9.72;83.75
14253;BME280;7210;51.502;10.722;2023-04-30T08:25:20;100304.00;;;9.83;83.94
14253;BME280;7210;51.502;10.722;2023-04-30T08:27:47;100281.66;;;9.86;83.05
14253;BME280;7210;51.502;10.722;2023-04-30T08:30:14;100262.56;;;9.90;81.99
14253;BME280;7210;51.502;10.722;2023-04-30T08:32:42;100273.50;;;10.00;81.79
14253;BME280;7210;51.502;10.722;2023-04-30T08:35:10;100247.09;;;10.00;80.83
14253;BME280;7210;51.502;10.722;2023-04-30T08:37:41;100235.75;;;10.06;79.87
14253;BME280;7210;51.502;10.722;2023-04-30T08:40:08;100254.59;;;10.23;79.52
14253;BME280;7210;51.502;10.722;2023-04-30T08:42:45;100276.28;;;10.38;79.25
14253;BME280;7210;51.502;10.722;2023-04-30T08:45:13;100229.53;;;10.38;78.18
14253;BME280;7210;51.502;10.722;2023-04-30T08:47:41;100251.03;;;10.48;78.06
14253;BME280;7210;51.502;10.722;2023-04-30T08:50:11;100262.00;;;10.58;77.55
14253;BME280;7210;51.502;10.722;2023-04-30T08:52:41;100282.91;;;10.66;77.26
14253;BME280;7210;51.502;10.722;2023-04-30T08:55:09;100267.44;;;10.70;76.72
14253;BME280;7210;51.502;10.722;2023-04-30T08:57:37;100300.94;;;10.82;76.65
14253;BME280;7210;51.502;10.722;2023-04-30T09:00:06;100328.94;;;10.96;76.69
14253;BME280;7210;51.502;10.722;2023-04-30T09:02:34;100348.44;;;11.08;76.55
14253;BME280;7210;51.502;10.722;2023-04-30T09:05:09;100328.88;;;11.09;75.32
14253;BME280;7210;51.502;10.722;2023-04-30T09:07:41;100357.69;;;11.30;75.63
14253;BME280;7210;51.502;10.722;2023-04-30T09:10:14;100304.31;;;11.33;74.13
14253;BME280;7210;51.502;10.722;2023-04-30T09:12:42;100321.81;;;11.34;74.03
14253;BME280;7210;51.502;10.722;2023-04-30T09:15:11;100251.78;;;11.30;72.22
14253;BME280;7210;51.502;10.722;2023-04-30T09:17:39;100237.47;;;11.37;71.37
14253;BME280;7210;51.502;10.722;2023-04-30T09:20:08;100170.03;;;11.40;69.71
14253;BME280;7210;51.502;10.722;2023-04-30T09:22:37;100180.03;;;11.38;69.31
14253;BME280;7210;51.502;10.722;2023-04-30T09:25:07;100197.72;;;11.44;69.00
14253;BME280;7210;51.502;10.722;2023-04-30T09:27:34;100192.16;;;11.52;68.26
14253;BME280;7210;51.502;10.722;2023-04-30T09:30:02;100116.50;;;11.56;66.36
14253;BME280;7210;51.502;10.722;2023-04-30T09:32:31;100158.88;;;11.62;66.39
14253;BME280;7210;51.502;10.722;2023-04-30T09:34:59;100188.69;;;11.76;66.12
14253;BME280;7210;51.502;10.722;2023-04-30T09:37:35;100239.09;;;11.87;66.09
14253;BME280;7210;51.502;10.722;2023-04-30T09:40:05;100263.25;;;11.97;65.78
14253;BME280;7210;51.502;10.722;2023-04-30T09:42:32;100269.38;;;12.16;65.23
14253;BME280;7210;51.502;10.722;2023-04-30T09:45:00;100287.06;;;12.40;64.43
14253;BME280;7210;51.502;10.722;2023-04-30T09:47:29;100367.97;;;12.49;65.06
14253;BME280;7210;51.502;10.722;2023-04-30T09:49:59;100329.88;;;12.43;64.32
14253;BME280;7210;51.502;10.722;2023-04-30T09:52:26;100336.72;;;12.51;63.59
14253;BME280;7210;51.502;10.722;2023-04-30T09:54:53;100448.84;;;12.64;65.08
14253;BME280;7210;51.502;10.722;2023-04-30T09:57:23;100455.19;;;12.81;64.23
14253;BME280;7210;51.502;10.722;2023-04-30T09:59:51;100472.28;;;12.85;64.47
14253;BME280;7210;51.502;10.722;2023-04-30T10:02:20;100444.06;;;12.91;63.78
14253;BME280;7210;51.502;10.722;2023-04-30T10:04:56;100457.88;;;12.99;63.30
14253;BME280;7210;51.502;10.722;2023-04-30T10:07:38;100496.91;;;13.17;63.49
14253;BME280;7210;51.502;10.722;2023-04-30T10:10:08;100456.50;;;13.15;62.51
14253;BME280;7210;51.502;10.722;2023-04-30T10:12:49;100356.13;;;13.05;61.26
14253;BME280;7210;51.502;10.722;2023-04-30T10:15:24;100399.53;;;13.29;60.67
14253;BME280;7210;51.502;10.722;2023-04-30T10:18:01;100407.63;;;13.34;60.64
14253;BME280;7210;51.502;10.722;2023-04-30T10:20:33;100414.38;;;13.48;60.11
14253;BME280;7210;51.502;10.722;2023-04-30T10:23:02;100524.91;;;13.67;61.33
14253;BME280;7210;51.502;10.722;2023-04-30T10:25:31;100483.84;;;13.81;60.13
14253;BME280;7210;51.502;10.722;2023-04-30T10:28:00;100494.03;;;13.84;60.32
14253;BME280;7210;51.502;10.722;2023-04-30T10:30:28;100496.03;;;13.88;60.08
14253;BME280;7210;51.502;10.722;2023-04-30T10:33:12;100604.16;;;14.06;61.20
14253;BME280;7210;51.502;10.722;2023-04-30T10:35:48;100577.72;;;14.11;60.72
14253;BME280;7210;51.502;10.722;2023-04-30T10:38:22;100599.69;;;14.36;60.06
14253;BME280;7210;51.502;10.722;2023-04-30T10:40:54;100529.38;;;14.32;59.34
14253;BME280;7210;51.502;10.722;2023-04-30T10:43:25;100537.47;;;14.37;59.23
14253;BME280;7210;51.502;10.722;2023-04-30T10:45:52;100556.13;;;14.48;59.25
14253;BME280;7210;51.502;10.722;2023-04-30T10:48:23;100497.69;;;14.42;58.45
14253;BME280;7210;51.502;10.722;2023-04-30T10:50:55;100527.56;;;14.67;57.89
14253;BME280;7210;51.502;10.722;2023-04-30T10:53:23;100553.16;;;14.68;58.43
14253;BME280;7210;51.502;10.722;2023-04-30T10:55:57;100495.97;;;14.59;58.07
14253;BME280;7210;51.502;10.722;2023-04-30T10:58:30;100562.88;;;14.74;58.26
14253;BME280;7210;51.502;10.722;2023-04-30T11:01:01;100550.41;;;14.74;57.99
14253;BME280;7210;51.502;10.722;2023-04-30T11:03:36;100632.50;;;15.00;58.68
14253;BME280;7210;51.502;10.722;2023-04-30T11:06:11;100609.81;;;14.98;58.46
14253;BME280;7210;51.502;10.722;2023-04-30T11:08:42;100654.91;;;15.22;58.47
14253;BME280;7210;51.502;10.722;2023-04-30T11:11:11;100624.00;;;15.32;58.05
14253;BME280;7210;51.502;10.722;2023-04-30T11:13:44;100658.41;;;15.45;58.30
14253;BME280;7210;51.502;10.722;2023-04-30T11:16:17;100673.81;;;15.66;58.16
14253;BME280;7210;51.502;10.722;2023-04-30T11:18:46;100695.13;;;15.89;57.90
14253;BME280;7210;51.502;10.722;2023-04-30T11:21:13;100599.78;;;15.96;56.45
14253;BME280;7210;51.502;10.722;2023-04-30T11:23:41;100666.78;;;16.11;57.18
14253;BME280;7210;51.502;10.722;2023-04-30T11:26:09;100631.56;;;16.26;56.31
14253;BME280;7210;51.502;10.722;2023-04-30T11:28:37;100610.41;;;16.47;55.66
14253;BME280;7210;51.502;10.722;2023-04-30T11:31:05;100531.66;;;16.50;54.61
14253;BME280;7210;51.502;10.722;2023-04-30T11:33:33;100426.88;;;16.26;53.56
14253;BME280;7210;51.502;10.722;2023-04-30T11:36:01;100484.38;;;16.17;54.74
14253;BME280;7210;51.502;10.722;2023-04-30T11:38:31;100427.59;;;16.05;53.91
14253;BME280;7210;51.502;10.722;2023-04-30T11:41:00;100422.25;;;15.89;53.93
14253;BME280;7210;51.502;10.722;2023-04-30T11:43:32;100376.88;;;15.72;53.77
14253;BME280;7210;51.502;10.722;2023-04-30T11:46:03;100452.38;;;15.73;54.72
14253;BME280;7210;51.502;10.722;2023-04-30T11:48:33;100481.06;;;15.82;54.80
14253;BME280;7210;51.502;10.722;2023-04-30T11:51:13;100571.47;;;15.95;55.57
14253;BME280;7210;51.502;10.722;2023-04-30T11:53:41;100590.97;;;16.24;55.08
14253;BME280;7210;51.502;10.722;2023-04-30T11:56:11;100607.63;;;16.42;55.06
14253;BME280;7210;51.502;10.722;2023-04-30T11:58:38;100671.94;;;16.69;55.52
14253;BME280;7210;51.502;10.722;2023-04-30T12:01:06;100676.69;;;16.95;55.38
14253;BME280;7210;51.502;10.722;2023-04-30T12:03:42;100715.66;;;17.24;55.40
14253;BME280;7210;51.502;10.722;2023-04-30T12:06:10;100613.97;;;17.35;53.85
14253;BME280;7210;51.502;10.722;2023-04-30T12:08:40;100587.84;;;17.37;53.55
14253;BME280;7210;51.502;10.722;2023-04-30T12:11:20;100599.41;;;17.43;53.72
14253;BME280;7210;51.502;10.722;2023-04-30T12:13:51;100505.38;;;17.51;52.02
14253;BME280;7210;51.502;10.722;2023-04-30T12:16:18;100505.50;;;17.39;52.61
14253;BME280;7210;51.502;10.722;2023-04-30T12:18:47;100467.44;;;17.32;52.09
14253;BME280;7210;51.502;10.722;2023-04-30T12:21:15;100504.50;;;17.45;52.11
14253;BME280;7210;51.502;10.722;2023-04-30T12:23:43;100556.25;;;17.77;51.95
14253;BME280;7210;51.502;10.722;2023-04-30T12:26:11;100650.88;;;18.09;52.81
14253;BME280;7210;51.502;10.722;2023-04-30T12:28:38;100625.72;;;18.32;52.21
14253;BME280;7210;51.502;10.722;2023-04-30T12:31:05;100562.06;;;18.39;51.47
14253;BME280;7210;51.502;10.722;2023-04-30T12:33:32;100489.03;;;18.22;51.04
14253;BME280;7210;51.502;10.722;2023-04-30T12:36:01;100487.22;;;18.27;50.88
14253;BME280;7210;51.502;10.722;2023-04-30T12:38:28;100380.09;;;18.27;49.22
14253;BME280;7210;51.502;10.722;2023-04-30T12:41:03;100471.78;;;18.34;50.58
14253;BME280;7210;51.502;10.722;2023-04-30T12:43:30;100501.44;;;18.59;49.92
14253;BME280;7210;51.502;10.722;2023-04-30T12:45:57;100461.28;;;18.64;49.39
14253;BME280;7210;51.502;10.722;2023-04-30T12:48:25;100279.50;;;18.36;47.39
14253;BME280;7210;51.502;10.722;2023-04-30T12:50:55;100321.50;;;18.31;47.71
14253;BME280;7210;51.502;10.722;2023-04-30T12:53:24;100241.41;;;17.83;47.66
14253;BME280;7210;51.502;10.722;2023-04-30T12:56:10;100290.63;;;17.82;48.24
14253;BME280;7210;51.502;10.722;2023-04-30T12:58:40;100351.72;;;17.90;48.70
14253;BME280;7210;51.502;10.722;2023-04-30T13:01:10;100452.25;;;18.12;49.26